Dwight, KS (66849)

1:32 PM CDT on August 20, 2014 (GMT -0500)
Marshall Army Air Field | Change Station
CLOSE
Current Station
Airport
Location: Ft Riley,
Elevation: 1063 ft
Nearby Weather Stations

Elev 1063 ft 39.06 °N, 96.76 °W | Updated 34 minutes ago

Clear
Clear
92 °F
Feels Like 95 °F
N
18
Wind Variable Wind from SSW

Today
High -- | Low -- °F
--% Chance of Precip.
Yesterday
High -- | Low -- °F
Precip. -- in
6:44 AM 8:14 PM
Waning Crescent, 20% visible
Pressure 29.77 in
Visibility 10.0 miles
Clouds Clear
Heat Index 95 °F
Dew Point 67 °F
Humidity 43%
Rainfall 0.00 in
Snow Depth Not available.
UV 10 out of 12
Pollen 10.60 out of 12
Air Quality Not available.
Flu Activity Not available.
METAR KFRI 201758Z AUTO 21016KT 160V230 10SM CLR 33/19 A2981 RMK AO2 SLP080 T03340194 10334 20234 58007

More Conditions Fewer Conditions

Pressure 29.77 in
Visibility 10.0 miles
Clouds Clear
Heat Index 95 °F
Dew Point 67 °F
Humidity 43%
Rainfall 0.00 in
Snow Depth Not available.
UV 10 out of 12
Pollen 10.60 out of 12
Air Quality Not available.
Flu Activity Not available.
METAR KFRI 201758Z AUTO 21016KT 160V230 10SM CLR 33/19 A2981 RMK AO2 SLP080 T03340194 10334 20234 58007

More Conditions Fewer Conditions

10-Day Weather Forecast

Almanac

Astronomy

Aug. 20, 2014 Rise Set
Actual Time 6:44 AM CDT 8:14 PM CDT
Civil Twilight 6:16 AM CDT 8:42 PM CDT
Nautical Twilight 5:42 AM CDT 9:15 PM CDT
Astronomical Twilight 5:07 AM CDT 9:51 PM CDT
Moon 2:26 AM CDT 4:58 PM CDT
Length of Visible Light 14h 25m
Length of Day
13h 29m
Tomorrow will be 2m 18s shorter.
Waning Crescent, 20% of the Moon is Illuminated
Today
Waning Crescent
Aug 25
New
Sep 2
First Quarter
Sep 8
Full
Sep 15
Last Quarter

Today's Extremes

State Highs State Lows

Community

WunderPhotos

Upload Photos

1,745,707 photos uploaded!

WunderBlogs® & News

By Dr. Jeff Masters
Director of Meteorology, Weather Underground
By Kari Strenfel
Meteorologist, Weather Underground
By Christopher C. Burt
Weather Historian, Weather Underground
August 20, 2014
August 20, 2014
August 20, 2014

Nearby

Snow Depth

Station Depth Elevation
No new snow has been reported.

Earthquake Activity

City Distance Mag. Time & Date
Medford, Oklahoma 153 miles 3.4 5:54 AM CDT
2014-08-16
Minimum magnitude displayed is 2.5.

Coastal Water Temperatures

Place Temperature
No Stations Reporting

Nearby Weather Stations